miércoles, 26 de agosto de 2009

Accidente: Antonov AN-12 en el Congo



Cinco miembros de la tripulación rusa y dos congoleños han muerto en el accidente de un avión de carga Antonov 12 en un cementerio en las afueras de Brazzaville el miércoles, dijo el ministro de Transporte congoleño Emile Ouosso.

"En el accidente murieron siete personas: cinco miembros de la tripulación de nacionalidad rusa y dos congoleños, que son inmigrantes ilegales que no tengan su nombre en el . La aeronave, que une a Brazzaville, Pointe Noire, se estrelló mientras estaba en el proceso de aterrizaje en un cementerio en Lingolo Nganga (un suburbio 20 kilómetros al sur de Brazzaville), dijo el ministro.

"Había fuego en la parte trasera y el avión se rompió cinco pies sobre el suelo", agregó.

Sin embargo, testigos dijeron que vieron a un ala en llamas antes del accidente.

"El avión transportaba bebidas y tres coches", dijo Ouosso, agregando que los bomberos estaban "llegó a la escena, mientras que aún había llamas que han dominado.

Se anunció el lanzamiento de una investigación para encontrar la caja negra del avión

Cinco rusos mueren al estrellarse un An 12 en Congo



Moscú, 26 de agosto, RIA Novosti. Siete personas, incluidos cinco ciudadanos de Rusia, perecieron hoy al caer un avión de carga An 12 en la República de Congo, informó el Ministerio de Transporte de ese país centroafricano.

Anteriormente se reportó que la avería ocasionó al menos cuatro muertes.

"Estuvimos en el lugar del accidente y descubrimos que perdieron la vida cinco tripulantes rusos y también dos congoleños que no figuraban en la lista de vuelo", dijo el ministro de Transporte de la república Emile Ouosso.

La embajada de Rusia en Congo no pudo confirmar la noticia de la muerte de los rusos a RIA Novosti.

An Aero-Fret Business Antonov AN-12 freighter, registration TN-AIA performing a freight flight from Pointe Noire to Brazzaville (Congo) with 4 crew on board, was on approach to Brazzaville, when the airplane impacted ground about 8nm (15km) southwest of Brazzaville within the cemetery of the village of Nganga Lingolo slightly right of the extended centerline ahead of Brazzaville's runway 05 at around 7am local (06:00Z). All 4 crew perished in the crash.

The Congolese Ministry of Transport said, that 7 bodies were recovered from the crash site. Acccording to that information the victims were 5 Russian and 2 Congolese citizens (local residents). Russia's embassy have not yet confirmed, that Russians were involved.

Metars:
FCBB 261300Z 27006KT 220V030 9999 SCT020 BKN026 29/19 Q1012 NOSIG
FCBB 261200Z 29006KT 240V330 9000 SCT020 BKN026 28/19 Q1013 NOSIG
FCBB 261100Z 27008KT 240V300 8000 SCT020 BKN026 27/19 Q1014 NOSIG
FCBB 261000Z 25009KT 220V280 8000 SCT020 BKN026 26/19 Q1016 NOSIG
FCBB 260900Z 26009KT 7000 FEW010 SCT020 BKN026 24/20 Q1016 NOSIG
FCBB 260800Z 27005KT 240V310 3500 DZ FEW010 SCT016 OVC033 22/21 Q1016 TEMPO 5000
FCBB 260700Z 28005KT 7000 SCT016 OVC026 22/20 Q1016 NOSIG
FCBB 260600Z 27006KT 7000 SCT016 OVC130 21/20 Q1015 NOSIG
FCBB 260500Z 27005KT 6000 -RA FEW016 OVC120 21/20 Q1015 NOSIG
FCBB 260400Z 28006KT 8000 -RA SCT020 22/20 Q1014 NOSIG
FCBB 260300Z 29008KT 8000 SCT020 21/20 Q1014 NOSIG
FCBB 260200Z VRB02KT 8000 NSC 21/19 Q1013 NOSIG
FCBB 260100Z VRB02KT 230V300 8000 NSC 22/20 Q1013 NOSIG
FCBB 260000Z 27004KT 230V300 8000 NSC 22/20 Q1013 NOSIG

Fuente:
afriquecentrale.info
Ria Novosti

No hay comentarios.:

Publicar un comentario